Strona główna
METAR-TAF:

METAR-TAF

Lotnisko :

Baker Municipal Airport

Baker, Montana, Stany Zjednoczone

Szerokość geograficzna: 46-20-52N, Długość geograficzna: 104-15-27W, wysokość: 905 m

Aktualna obserwacja pogody

Raport powstał 24 minut temu, godzina 05:51 UTC
Cisza
Temperatura -16°C
Wilgotność 84%
Ciśnienie 1031 hPa
Widzialność: 16.1 km
bezchmurnie

METAR: KBHK 200551Z AUTO 00000KT 10SM CLR M16/M18 A3045 RMK AO2 SLP374 I1000 I6000 T11611183 11078 21172 50000

czas: 23:15 (06:15 UTC)


TAF: brakujący

Obserwacja i prognoza pogody dla ponad 4000 lotnisk (raport METAR i TAF).

Dostępne stacje oznaczono żółtymi i czerwonymi punktami na mapie.

Najedź kursorem aby zobaczyć nazwę stacji.

Kliknij aby zobaczyć obserwacje i prognozy pogody.

Aby zmienić mapę: kliknij na zielony przycisk z czarnym krzyżykiem, aby powiększyć; na zielony przycisk z myślnikiem, aby pomniejszyć; na zielone strzałki, aby przejść do map sąsiednich.


METAR-TAF: